sensor_id;sensor_type;location;lat;lon;timestamp;temperature;humidity
10964;DHT22;5534;48.784;9.190;2023-07-29T00:00:17;18.80;99.90
10964;DHT22;5534;48.784;9.190;2023-07-29T00:02:44;18.70;99.90
10964;DHT22;5534;48.784;9.190;2023-07-29T00:05:10;18.70;99.90
10964;DHT22;5534;48.784;9.190;2023-07-29T00:07:36;18.90;99.90
10964;DHT22;5534;48.784;9.190;2023-07-29T00:10:02;19.10;99.90
10964;DHT22;5534;48.784;9.190;2023-07-29T00:12:28;19.20;99.90
10964;DHT22;5534;48.784;9.190;2023-07-29T00:14:57;19.40;99.90
10964;DHT22;5534;48.784;9.190;2023-07-29T00:17:22;19.40;99.90
10964;DHT22;5534;48.784;9.190;2023-07-29T00:19:48;19.40;99.90
10964;DHT22;5534;48.784;9.190;2023-07-29T00:22:14;19.50;99.90
10964;DHT22;5534;48.784;9.190;2023-07-29T00:24:40;19.60;99.90
10964;DHT22;5534;48.784;9.190;2023-07-29T00:27:06;19.50;99.90
10964;DHT22;5534;48.784;9.190;2023-07-29T00:29:32;19.60;99.90
10964;DHT22;5534;48.784;9.190;2023-07-29T00:31:58;19.60;99.90
10964;DHT22;5534;48.784;9.190;2023-07-29T00:34:24;19.50;99.90
10964;DHT22;5534;48.784;9.190;2023-07-29T00:36:50;19.50;99.90
10964;DHT22;5534;48.784;9.190;2023-07-29T00:39:16;19.40;99.90
10964;DHT22;5534;48.784;9.190;2023-07-29T00:41:41;19.40;99.90
10964;DHT22;5534;48.784;9.190;2023-07-29T00:44:07;19.60;99.90
10964;DHT22;5534;48.784;9.190;2023-07-29T00:46:34;19.60;99.90
10964;DHT22;5534;48.784;9.190;2023-07-29T00:49:01;19.60;99.90
10964;DHT22;5534;48.784;9.190;2023-07-29T00:51:27;19.50;99.90
10964;DHT22;5534;48.784;9.190;2023-07-29T00:53:53;19.60;99.90
10964;DHT22;5534;48.784;9.190;2023-07-29T00:56:19;19.50;99.90
10964;DHT22;5534;48.784;9.190;2023-07-29T00:58:44;19.50;99.90
10964;DHT22;5534;48.784;9.190;2023-07-29T01:03:46;19.30;99.90
10964;DHT22;5534;48.784;9.190;2023-07-29T01:06:24;19.30;99.90
10964;DHT22;5534;48.784;9.190;2023-07-29T01:09:02;19.20;99.90
10964;DHT22;5534;48.784;9.190;2023-07-29T01:14:27;19.30;99.90
10964;DHT22;5534;48.784;9.190;2023-07-29T01:17:02;19.30;99.90
10964;DHT22;5534;48.784;9.190;2023-07-29T01:22:00;19.30;99.90
10964;DHT22;5534;48.784;9.190;2023-07-29T01:24:28;19.40;99.90
10964;DHT22;5534;48.784;9.190;2023-07-29T01:26:54;19.60;99.90
10964;DHT22;5534;48.784;9.190;2023-07-29T01:29:19;19.60;99.90
10964;DHT22;5534;48.784;9.190;2023-07-29T01:31:47;19.60;99.90
10964;DHT22;5534;48.784;9.190;2023-07-29T01:34:39;19.70;99.90
10964;DHT22;5534;48.784;9.190;2023-07-29T01:37:09;19.60;99.90
10964;DHT22;5534;48.784;9.190;2023-07-29T01:39:38;19.60;99.90
10964;DHT22;5534;48.784;9.190;2023-07-29T01:42:04;19.60;99.90
10964;DHT22;5534;48.784;9.190;2023-07-29T01:44:31;19.60;99.90
10964;DHT22;5534;48.784;9.190;2023-07-29T01:46:57;19.70;99.90
10964;DHT22;5534;48.784;9.190;2023-07-29T01:49:23;19.70;99.90
10964;DHT22;5534;48.784;9.190;2023-07-29T01:51:48;19.70;99.90
10964;DHT22;5534;48.784;9.190;2023-07-29T01:54:14;19.70;99.90
10964;DHT22;5534;48.784;9.190;2023-07-29T01:56:40;19.80;99.90
10964;DHT22;5534;48.784;9.190;2023-07-29T01:59:06;19.60;99.90
10964;DHT22;5534;48.784;9.190;2023-07-29T02:01:31;19.40;99.90
10964;DHT22;5534;48.784;9.190;2023-07-29T02:03:57;19.20;99.90
10964;DHT22;5534;48.784;9.190;2023-07-29T02:06:23;19.20;99.90
10964;DHT22;5534;48.784;9.190;2023-07-29T02:08:49;19.20;99.90
10964;DHT22;5534;48.784;9.190;2023-07-29T02:11:15;19.10;99.90
10964;DHT22;5534;48.784;9.190;2023-07-29T02:13:41;19.00;99.90
10964;DHT22;5534;48.784;9.190;2023-07-29T02:16:07;18.90;99.90
10964;DHT22;5534;48.784;9.190;2023-07-29T02:18:33;18.60;99.90
10964;DHT22;5534;48.784;9.190;2023-07-29T02:20:58;18.70;99.90
10964;DHT22;5534;48.784;9.190;2023-07-29T02:23:24;18.70;99.90
10964;DHT22;5534;48.784;9.190;2023-07-29T02:25:50;18.80;99.90
10964;DHT22;5534;48.784;9.190;2023-07-29T02:28:16;18.80;99.90
10964;DHT22;5534;48.784;9.190;2023-07-29T02:30:42;18.90;99.90
10964;DHT22;5534;48.784;9.190;2023-07-29T02:33:10;18.80;99.90
10964;DHT22;5534;48.784;9.190;2023-07-29T02:35:35;18.80;99.90
10964;DHT22;5534;48.784;9.190;2023-07-29T02:38:01;18.80;99.90
10964;DHT22;5534;48.784;9.190;2023-07-29T02:40:27;19.00;99.90
10964;DHT22;5534;48.784;9.190;2023-07-29T02:42:54;19.10;99.90
10964;DHT22;5534;48.784;9.190;2023-07-29T02:45:22;18.90;99.90
10964;DHT22;5534;48.784;9.190;2023-07-29T02:47:48;18.70;99.90
10964;DHT22;5534;48.784;9.190;2023-07-29T02:50:14;18.90;99.90
10964;DHT22;5534;48.784;9.190;2023-07-29T02:52:39;18.90;99.90
10964;DHT22;5534;48.784;9.190;2023-07-29T02:55:06;18.60;99.90
10964;DHT22;5534;48.784;9.190;2023-07-29T02:57:31;18.80;99.90
10964;DHT22;5534;48.784;9.190;2023-07-29T02:59:57;18.60;99.90
10964;DHT22;5534;48.784;9.190;2023-07-29T03:02:23;18.70;99.90
10964;DHT22;5534;48.784;9.190;2023-07-29T03:04:48;18.50;99.90
10964;DHT22;5534;48.784;9.190;2023-07-29T03:07:14;18.70;99.90
10964;DHT22;5534;48.784;9.190;2023-07-29T03:09:40;18.70;99.90
10964;DHT22;5534;48.784;9.190;2023-07-29T03:12:07;18.60;99.90
10964;DHT22;5534;48.784;9.190;2023-07-29T03:14:33;18.50;99.90
10964;DHT22;5534;48.784;9.190;2023-07-29T03:17:02;18.40;99.90
10964;DHT22;5534;48.784;9.190;2023-07-29T03:19:29;18.60;99.90
10964;DHT22;5534;48.784;9.190;2023-07-29T03:21:55;18.70;99.90
10964;DHT22;5534;48.784;9.190;2023-07-29T03:24:21;18.80;99.90
10964;DHT22;5534;48.784;9.190;2023-07-29T03:26:47;18.70;99.90
10964;DHT22;5534;48.784;9.190;2023-07-29T03:29:12;18.70;99.90
10964;DHT22;5534;48.784;9.190;2023-07-29T03:31:38;18.80;99.90
10964;DHT22;5534;48.784;9.190;2023-07-29T03:34:04;18.80;99.90
10964;DHT22;5534;48.784;9.190;2023-07-29T03:36:29;18.90;99.90
10964;DHT22;5534;48.784;9.190;2023-07-29T03:38:55;18.90;99.90
10964;DHT22;5534;48.784;9.190;2023-07-29T03:41:21;18.80;99.90
10964;DHT22;5534;48.784;9.190;2023-07-29T03:43:47;18.60;99.90
10964;DHT22;5534;48.784;9.190;2023-07-29T03:46:12;18.60;99.90
10964;DHT22;5534;48.784;9.190;2023-07-29T03:48:39;18.80;99.90
10964;DHT22;5534;48.784;9.190;2023-07-29T03:51:04;18.70;99.90
10964;DHT22;5534;48.784;9.190;2023-07-29T03:53:30;18.60;99.90
10964;DHT22;5534;48.784;9.190;2023-07-29T03:55:56;18.70;99.90
10964;DHT22;5534;48.784;9.190;2023-07-29T03:58:22;18.90;99.90
10964;DHT22;5534;48.784;9.190;2023-07-29T04:00:47;18.80;99.90
10964;DHT22;5534;48.784;9.190;2023-07-29T04:03:13;18.90;99.90
10964;DHT22;5534;48.784;9.190;2023-07-29T04:05:39;19.00;99.90
10964;DHT22;5534;48.784;9.190;2023-07-29T04:08:05;18.90;99.90
10964;DHT22;5534;48.784;9.190;2023-07-29T04:10:31;19.20;99.90
10964;DHT22;5534;48.784;9.190;2023-07-29T04:12:57;19.30;99.90
10964;DHT22;5534;48.784;9.190;2023-07-29T04:15:23;19.40;99.90
10964;DHT22;5534;48.784;9.190;2023-07-29T04:17:48;19.20;99.90
10964;DHT22;5534;48.784;9.190;2023-07-29T04:20:14;19.20;99.90
10964;DHT22;5534;48.784;9.190;2023-07-29T04:22:40;19.30;99.90
10964;DHT22;5534;48.784;9.190;2023-07-29T04:25:06;19.30;99.90
10964;DHT22;5534;48.784;9.190;2023-07-29T04:27:32;19.40;99.90
10964;DHT22;5534;48.784;9.190;2023-07-29T04:29:57;19.30;99.90
10964;DHT22;5534;48.784;9.190;2023-07-29T04:32:23;19.30;99.90
10964;DHT22;5534;48.784;9.190;2023-07-29T04:34:49;19.40;99.90
10964;DHT22;5534;48.784;9.190;2023-07-29T04:37:15;19.50;99.90
10964;DHT22;5534;48.784;9.190;2023-07-29T04:39:41;19.60;99.90
10964;DHT22;5534;48.784;9.190;2023-07-29T04:42:06;19.60;99.90
10964;DHT22;5534;48.784;9.190;2023-07-29T04:44:32;19.50;99.90
10964;DHT22;5534;48.784;9.190;2023-07-29T04:46:58;19.50;99.90
10964;DHT22;5534;48.784;9.190;2023-07-29T04:49:24;19.40;99.90
10964;DHT22;5534;48.784;9.190;2023-07-29T04:51:49;19.40;99.90
10964;DHT22;5534;48.784;9.190;2023-07-29T04:54:15;19.30;99.90
10964;DHT22;5534;48.784;9.190;2023-07-29T04:56:41;19.30;99.90
10964;DHT22;5534;48.784;9.190;2023-07-29T04:59:06;19.20;99.90
10964;DHT22;5534;48.784;9.190;2023-07-29T05:01:34;19.20;99.90
10964;DHT22;5534;48.784;9.190;2023-07-29T05:03:59;19.20;99.90
10964;DHT22;5534;48.784;9.190;2023-07-29T05:06:25;19.10;99.90
10964;DHT22;5534;48.784;9.190;2023-07-29T05:08:51;19.00;99.90
10964;DHT22;5534;48.784;9.190;2023-07-29T05:11:16;19.00;99.90
10964;DHT22;5534;48.784;9.190;2023-07-29T05:13:42;19.00;99.90
10964;DHT22;5534;48.784;9.190;2023-07-29T05:16:09;19.00;99.90
10964;DHT22;5534;48.784;9.190;2023-07-29T05:18:35;19.20;99.90
10964;DHT22;5534;48.784;9.190;2023-07-29T05:21:00;19.40;99.90
10964;DHT22;5534;48.784;9.190;2023-07-29T05:23:26;19.40;99.90
10964;DHT22;5534;48.784;9.190;2023-07-29T05:25:52;19.60;99.90
10964;DHT22;5534;48.784;9.190;2023-07-29T05:28:18;19.60;99.90
10964;DHT22;5534;48.784;9.190;2023-07-29T05:30:44;19.50;99.90
10964;DHT22;5534;48.784;9.190;2023-07-29T05:33:10;19.60;99.90
10964;DHT22;5534;48.784;9.190;2023-07-29T05:35:35;19.60;99.90
10964;DHT22;5534;48.784;9.190;2023-07-29T05:38:01;19.70;99.90
10964;DHT22;5534;48.784;9.190;2023-07-29T05:40:28;19.60;99.90
10964;DHT22;5534;48.784;9.190;2023-07-29T05:42:54;19.50;99.90
10964;DHT22;5534;48.784;9.190;2023-07-29T05:45:20;19.60;99.90
10964;DHT22;5534;48.784;9.190;2023-07-29T05:47:45;19.60;99.90
10964;DHT22;5534;48.784;9.190;2023-07-29T05:50:11;19.70;99.90
10964;DHT22;5534;48.784;9.190;2023-07-29T05:52:37;19.70;99.90
10964;DHT22;5534;48.784;9.190;2023-07-29T05:55:04;19.80;99.90
10964;DHT22;5534;48.784;9.190;2023-07-29T05:57:29;20.00;99.90
10964;DHT22;5534;48.784;9.190;2023-07-29T05:59:55;20.00;99.90
10964;DHT22;5534;48.784;9.190;2023-07-29T06:02:21;20.10;99.90
10964;DHT22;5534;48.784;9.190;2023-07-29T06:04:47;20.20;99.90
10964;DHT22;5534;48.784;9.190;2023-07-29T06:07:13;20.30;99.90
10964;DHT22;5534;48.784;9.190;2023-07-29T06:09:39;20.40;99.90
10964;DHT22;5534;48.784;9.190;2023-07-29T06:12:06;20.50;99.90
10964;DHT22;5534;48.784;9.190;2023-07-29T06:14:32;20.60;99.90
10964;DHT22;5534;48.784;9.190;2023-07-29T06:16:57;20.60;99.90
10964;DHT22;5534;48.784;9.190;2023-07-29T06:19:23;20.60;99.90
10964;DHT22;5534;48.784;9.190;2023-07-29T06:21:49;20.60;99.90
10964;DHT22;5534;48.784;9.190;2023-07-29T06:24:14;20.60;99.90
10964;DHT22;5534;48.784;9.190;2023-07-29T06:26:40;20.60;99.90
10964;DHT22;5534;48.784;9.190;2023-07-29T06:29:06;20.70;99.90
10964;DHT22;5534;48.784;9.190;2023-07-29T06:31:32;20.70;99.90
10964;DHT22;5534;48.784;9.190;2023-07-29T06:33:58;20.90;99.90
10964;DHT22;5534;48.784;9.190;2023-07-29T06:36:24;20.80;99.90
10964;DHT22;5534;48.784;9.190;2023-07-29T06:38:50;20.80;99.90
10964;DHT22;5534;48.784;9.190;2023-07-29T06:41:15;20.80;99.90
10964;DHT22;5534;48.784;9.190;2023-07-29T06:43:42;20.70;99.90
10964;DHT22;5534;48.784;9.190;2023-07-29T06:46:07;20.60;99.90
10964;DHT22;5534;48.784;9.190;2023-07-29T06:48:33;20.60;99.90
10964;DHT22;5534;48.784;9.190;2023-07-29T06:50:59;20.50;99.90
10964;DHT22;5534;48.784;9.190;2023-07-29T06:53:29;20.60;99.90
10964;DHT22;5534;48.784;9.190;2023-07-29T06:55:55;20.60;99.90
10964;DHT22;5534;48.784;9.190;2023-07-29T06:58:21;20.60;99.90
10964;DHT22;5534;48.784;9.190;2023-07-29T07:00:47;20.60;99.90
10964;DHT22;5534;48.784;9.190;2023-07-29T07:03:13;20.50;99.90
10964;DHT22;5534;48.784;9.190;2023-07-29T07:05:39;20.40;99.90
10964;DHT22;5534;48.784;9.190;2023-07-29T07:08:07;20.40;99.90
10964;DHT22;5534;48.784;9.190;2023-07-29T07:10:33;20.40;99.90
10964;DHT22;5534;48.784;9.190;2023-07-29T07:12:59;20.30;99.90
10964;DHT22;5534;48.784;9.190;2023-07-29T07:15:25;20.40;99.90
10964;DHT22;5534;48.784;9.190;2023-07-29T07:17:51;20.20;99.90
10964;DHT22;5534;48.784;9.190;2023-07-29T07:20:17;20.20;99.90
10964;DHT22;5534;48.784;9.190;2023-07-29T07:22:43;20.20;99.90
10964;DHT22;5534;48.784;9.190;2023-07-29T07:25:09;20.20;99.90
10964;DHT22;5534;48.784;9.190;2023-07-29T07:27:35;20.20;99.90
10964;DHT22;5534;48.784;9.190;2023-07-29T07:30:02;20.30;99.90
10964;DHT22;5534;48.784;9.190;2023-07-29T07:32:29;20.40;99.90
10964;DHT22;5534;48.784;9.190;2023-07-29T07:34:54;20.40;99.90
10964;DHT22;5534;48.784;9.190;2023-07-29T07:37:20;20.30;99.90
10964;DHT22;5534;48.784;9.190;2023-07-29T07:39:46;20.40;99.90
10964;DHT22;5534;48.784;9.190;2023-07-29T07:42:12;20.40;99.90
10964;DHT22;5534;48.784;9.190;2023-07-29T07:44:38;20.60;99.90
10964;DHT22;5534;48.784;9.190;2023-07-29T07:47:06;20.50;99.90
10964;DHT22;5534;48.784;9.190;2023-07-29T07:49:32;20.60;99.90
10964;DHT22;5534;48.784;9.190;2023-07-29T07:51:58;20.70;99.90
10964;DHT22;5534;48.784;9.190;2023-07-29T07:54:24;20.70;99.90
10964;DHT22;5534;48.784;9.190;2023-07-29T07:56:50;20.60;99.90
10964;DHT22;5534;48.784;9.190;2023-07-29T07:59:15;20.70;99.90
10964;DHT22;5534;48.784;9.190;2023-07-29T08:01:41;20.70;99.90
10964;DHT22;5534;48.784;9.190;2023-07-29T08:04:07;20.80;99.90
10964;DHT22;5534;48.784;9.190;2023-07-29T08:06:35;20.80;99.90
10964;DHT22;5534;48.784;9.190;2023-07-29T08:09:01;21.00;99.90
10964;DHT22;5534;48.784;9.190;2023-07-29T08:11:27;21.20;99.90
10964;DHT22;5534;48.784;9.190;2023-07-29T08:13:53;21.20;99.90
10964;DHT22;5534;48.784;9.190;2023-07-29T08:16:18;21.20;99.90
10964;DHT22;5534;48.784;9.190;2023-07-29T08:18:44;21.30;99.90
10964;DHT22;5534;48.784;9.190;2023-07-29T08:21:10;21.40;99.90
10964;DHT22;5534;48.784;9.190;2023-07-29T08:23:36;21.80;99.90
10964;DHT22;5534;48.784;9.190;2023-07-29T08:26:03;21.90;99.90
10964;DHT22;5534;48.784;9.190;2023-07-29T08:28:32;21.80;99.90
10964;DHT22;5534;48.784;9.190;2023-07-29T08:30:58;21.80;99.90
10964;DHT22;5534;48.784;9.190;2023-07-29T08:33:24;21.70;99.90
10964;DHT22;5534;48.784;9.190;2023-07-29T08:35:51;21.70;99.90
10964;DHT22;5534;48.784;9.190;2023-07-29T08:38:16;21.70;99.90
10964;DHT22;5534;48.784;9.190;2023-07-29T08:40:50;21.70;99.90
10964;DHT22;5534;48.784;9.190;2023-07-29T08:43:19;21.70;99.90
10964;DHT22;5534;48.784;9.190;2023-07-29T08:45:46;21.80;99.90
10964;DHT22;5534;48.784;9.190;2023-07-29T08:48:13;21.90;99.90
10964;DHT22;5534;48.784;9.190;2023-07-29T08:50:41;22.00;99.90
10964;DHT22;5534;48.784;9.190;2023-07-29T08:53:10;22.20;99.90
10964;DHT22;5534;48.784;9.190;2023-07-29T08:55:36;22.50;99.90
10964;DHT22;5534;48.784;9.190;2023-07-29T08:58:03;22.80;99.90
10964;DHT22;5534;48.784;9.190;2023-07-29T09:00:29;23.10;99.90
10964;DHT22;5534;48.784;9.190;2023-07-29T09:02:55;23.50;99.90
10964;DHT22;5534;48.784;9.190;2023-07-29T09:05:23;23.70;99.90
10964;DHT22;5534;48.784;9.190;2023-07-29T09:07:51;23.80;99.90
10964;DHT22;5534;48.784;9.190;2023-07-29T09:10:21;24.20;99.90
10964;DHT22;5534;48.784;9.190;2023-07-29T09:12:49;24.60;99.90
10964;DHT22;5534;48.784;9.190;2023-07-29T09:15:29;24.50;99.90
10964;DHT22;5534;48.784;9.190;2023-07-29T09:17:58;24.30;99.90
10964;DHT22;5534;48.784;9.190;2023-07-29T09:20:27;23.90;99.90
10964;DHT22;5534;48.784;9.190;2023-07-29T09:22:55;23.90;99.90
10964;DHT22;5534;48.784;9.190;2023-07-29T09:25:28;23.90;99.90
10964;DHT22;5534;48.784;9.190;2023-07-29T09:28:01;24.00;99.90
10964;DHT22;5534;48.784;9.190;2023-07-29T09:30:27;24.20;99.90
10964;DHT22;5534;48.784;9.190;2023-07-29T09:32:57;24.50;99.90
10964;DHT22;5534;48.784;9.190;2023-07-29T09:35:23;24.50;99.90
10964;DHT22;5534;48.784;9.190;2023-07-29T09:37:51;24.60;99.90
10964;DHT22;5534;48.784;9.190;2023-07-29T09:40:18;24.60;99.90
10964;DHT22;5534;48.784;9.190;2023-07-29T09:42:51;24.70;99.90
10964;DHT22;5534;48.784;9.190;2023-07-29T09:45:22;24.70;99.90
10964;DHT22;5534;48.784;9.190;2023-07-29T09:47:49;24.50;99.90
10964;DHT22;5534;48.784;9.190;2023-07-29T09:50:15;24.50;99.90
10964;DHT22;5534;48.784;9.190;2023-07-29T09:52:41;24.50;99.90
10964;DHT22;5534;48.784;9.190;2023-07-29T09:55:09;24.50;99.90
10964;DHT22;5534;48.784;9.190;2023-07-29T09:57:34;24.50;99.90
10964;DHT22;5534;48.784;9.190;2023-07-29T10:00:01;24.60;99.90
10964;DHT22;5534;48.784;9.190;2023-07-29T10:02:30;24.60;99.90
10964;DHT22;5534;48.784;9.190;2023-07-29T10:04:57;24.60;99.90
10964;DHT22;5534;48.784;9.190;2023-07-29T10:07:24;24.80;99.90
10964;DHT22;5534;48.784;9.190;2023-07-29T10:09:52;25.10;99.90
10964;DHT22;5534;48.784;9.190;2023-07-29T10:12:18;25.30;99.90
10964;DHT22;5534;48.784;9.190;2023-07-29T10:14:46;25.50;99.90
10964;DHT22;5534;48.784;9.190;2023-07-29T10:17:15;25.40;99.90
10964;DHT22;5534;48.784;9.190;2023-07-29T10:19:42;25.30;99.90
10964;DHT22;5534;48.784;9.190;2023-07-29T10:22:09;25.20;99.90
10964;DHT22;5534;48.784;9.190;2023-07-29T10:24:36;24.90;99.90
10964;DHT22;5534;48.784;9.190;2023-07-29T10:27:06;24.90;99.90
10964;DHT22;5534;48.784;9.190;2023-07-29T10:29:38;24.80;99.90
10964;DHT22;5534;48.784;9.190;2023-07-29T10:32:05;24.60;99.90
10964;DHT22;5534;48.784;9.190;2023-07-29T10:34:32;24.60;99.90
10964;DHT22;5534;48.784;9.190;2023-07-29T10:37:00;24.50;99.90
10964;DHT22;5534;48.784;9.190;2023-07-29T10:39:26;24.30;99.90
10964;DHT22;5534;48.784;9.190;2023-07-29T10:41:58;24.10;99.90
10964;DHT22;5534;48.784;9.190;2023-07-29T10:47:27;23.80;99.90
10964;DHT22;5534;48.784;9.190;2023-07-29T10:49:57;23.70;99.90
10964;DHT22;5534;48.784;9.190;2023-07-29T10:55:00;23.50;99.90
10964;DHT22;5534;48.784;9.190;2023-07-29T10:57:39;23.40;99.90
10964;DHT22;5534;48.784;9.190;2023-07-29T11:00:08;23.50;99.90
10964;DHT22;5534;48.784;9.190;2023-07-29T11:02:38;23.60;99.90
10964;DHT22;5534;48.784;9.190;2023-07-29T11:05:16;23.60;99.90
10964;DHT22;5534;48.784;9.190;2023-07-29T11:07:46;23.70;99.90
10964;DHT22;5534;48.784;9.190;2023-07-29T11:10:13;23.80;99.90
10964;DHT22;5534;48.784;9.190;2023-07-29T11:17:57;24.70;99.90
10964;DHT22;5534;48.784;9.190;2023-07-29T11:20:28;24.80;99.90
10964;DHT22;5534;48.784;9.190;2023-07-29T11:22:56;25.00;99.90
10964;DHT22;5534;48.784;9.190;2023-07-29T11:25:23;24.90;99.90
10964;DHT22;5534;48.784;9.190;2023-07-29T11:27:52;24.90;99.90
10964;DHT22;5534;48.784;9.190;2023-07-29T11:30:21;24.90;99.90
10964;DHT22;5534;48.784;9.190;2023-07-29T11:32:55;24.70;99.90
10964;DHT22;5534;48.784;9.190;2023-07-29T11:35:31;24.60;99.90
10964;DHT22;5534;48.784;9.190;2023-07-29T11:37:57;24.70;99.90
10964;DHT22;5534;48.784;9.190;2023-07-29T11:40:23;24.60;99.90
10964;DHT22;5534;48.784;9.190;2023-07-29T11:42:52;24.70;99.90
10964;DHT22;5534;48.784;9.190;2023-07-29T11:45:19;24.70;99.90
10964;DHT22;5534;48.784;9.190;2023-07-29T11:47:45;24.70;99.90
10964;DHT22;5534;48.784;9.190;2023-07-29T11:50:13;24.70;99.90
10964;DHT22;5534;48.784;9.190;2023-07-29T11:52:44;24.80;99.90
10964;DHT22;5534;48.784;9.190;2023-07-29T11:55:10;24.70;99.90
10964;DHT22;5534;48.784;9.190;2023-07-29T11:57:37;24.70;99.90
10964;DHT22;5534;48.784;9.190;2023-07-29T12:00:05;24.70;99.90
10964;DHT22;5534;48.784;9.190;2023-07-29T12:02:33;24.70;99.90
10964;DHT22;5534;48.784;9.190;2023-07-29T12:04:59;24.70;99.90
10964;DHT22;5534;48.784;9.190;2023-07-29T12:07:25;24.70;99.90
10964;DHT22;5534;48.784;9.190;2023-07-29T12:09:52;24.80;99.90
10964;DHT22;5534;48.784;9.190;2023-07-29T12:12:18;24.70;99.90
10964;DHT22;5534;48.784;9.190;2023-07-29T12:14:45;24.80;99.90
10964;DHT22;5534;48.784;9.190;2023-07-29T12:17:12;24.70;99.90
10964;DHT22;5534;48.784;9.190;2023-07-29T12:19:47;24.70;99.90
10964;DHT22;5534;48.784;9.190;2023-07-29T12:22:24;24.80;99.90
10964;DHT22;5534;48.784;9.190;2023-07-29T12:24:51;24.70;99.90
10964;DHT22;5534;48.784;9.190;2023-07-29T12:27:21;24.70;99.90
10964;DHT22;5534;48.784;9.190;2023-07-29T12:29:54;24.90;99.90
10964;DHT22;5534;48.784;9.190;2023-07-29T12:32:20;24.80;99.90
10964;DHT22;5534;48.784;9.190;2023-07-29T12:34:52;25.10;99.90
10964;DHT22;5534;48.784;9.190;2023-07-29T12:37:18;25.20;99.90
10964;DHT22;5534;48.784;9.190;2023-07-29T12:39:44;25.20;99.90
10964;DHT22;5534;48.784;9.190;2023-07-29T12:42:10;25.40;99.90
10964;DHT22;5534;48.784;9.190;2023-07-29T12:44:39;25.40;99.90
10964;DHT22;5534;48.784;9.190;2023-07-29T12:47:06;25.70;99.90
10964;DHT22;5534;48.784;9.190;2023-07-29T12:49:32;25.90;99.90
10964;DHT22;5534;48.784;9.190;2023-07-29T12:51:59;26.10;99.90
10964;DHT22;5534;48.784;9.190;2023-07-29T12:54:28;26.20;99.90
10964;DHT22;5534;48.784;9.190;2023-07-29T12:57:00;26.30;99.90
10964;DHT22;5534;48.784;9.190;2023-07-29T12:59:29;26.10;99.90
10964;DHT22;5534;48.784;9.190;2023-07-29T13:01:55;26.30;99.90
10964;DHT22;5534;48.784;9.190;2023-07-29T13:04:28;25.90;99.90
10964;DHT22;5534;48.784;9.190;2023-07-29T13:06:54;26.00;99.90
10964;DHT22;5534;48.784;9.190;2023-07-29T13:09:20;26.10;99.90
10964;DHT22;5534;48.784;9.190;2023-07-29T13:11:48;25.90;99.90
10964;DHT22;5534;48.784;9.190;2023-07-29T13:14:17;25.90;99.90
10964;DHT22;5534;48.784;9.190;2023-07-29T13:16:43;25.80;99.90
10964;DHT22;5534;48.784;9.190;2023-07-29T13:19:09;26.00;99.90
10964;DHT22;5534;48.784;9.190;2023-07-29T13:21:34;26.00;99.90
10964;DHT22;5534;48.784;9.190;2023-07-29T13:24:00;26.10;99.90
10964;DHT22;5534;48.784;9.190;2023-07-29T13:26:26;26.20;99.90
10964;DHT22;5534;48.784;9.190;2023-07-29T13:28:52;26.20;99.90
10964;DHT22;5534;48.784;9.190;2023-07-29T13:31:41;26.10;99.90
10964;DHT22;5534;48.784;9.190;2023-07-29T13:34:17;26.00;99.90
10964;DHT22;5534;48.784;9.190;2023-07-29T13:36:42;25.90;99.90
10964;DHT22;5534;48.784;9.190;2023-07-29T13:39:11;25.80;99.90
10964;DHT22;5534;48.784;9.190;2023-07-29T13:41:37;25.90;99.90
10964;DHT22;5534;48.784;9.190;2023-07-29T13:44:06;25.70;99.90
10964;DHT22;5534;48.784;9.190;2023-07-29T13:46:31;25.70;99.90
10964;DHT22;5534;48.784;9.190;2023-07-29T13:48:57;25.70;99.90
10964;DHT22;5534;48.784;9.190;2023-07-29T13:51:26;25.70;99.90
10964;DHT22;5534;48.784;9.190;2023-07-29T13:53:52;25.80;99.90
10964;DHT22;5534;48.784;9.190;2023-07-29T13:56:17;25.90;99.90
10964;DHT22;5534;48.784;9.190;2023-07-29T13:58:43;25.80;99.90
10964;DHT22;5534;48.784;9.190;2023-07-29T14:01:09;25.80;99.90
10964;DHT22;5534;48.784;9.190;2023-07-29T14:03:37;25.80;99.90
10964;DHT22;5534;48.784;9.190;2023-07-29T14:06:03;25.90;99.90
10964;DHT22;5534;48.784;9.190;2023-07-29T14:08:32;25.90;99.90
10964;DHT22;5534;48.784;9.190;2023-07-29T14:10:57;26.10;99.90
10964;DHT22;5534;48.784;9.190;2023-07-29T14:13:23;26.00;99.90
10964;DHT22;5534;48.784;9.190;2023-07-29T14:15:49;25.90;99.90
10964;DHT22;5534;48.784;9.190;2023-07-29T14:18:15;26.00;99.90
10964;DHT22;5534;48.784;9.190;2023-07-29T14:20:41;26.30;99.90
10964;DHT22;5534;48.784;9.190;2023-07-29T14:23:06;26.50;99.90
10964;DHT22;5534;48.784;9.190;2023-07-29T14:25:32;26.50;99.90
10964;DHT22;5534;48.784;9.190;2023-07-29T14:27:58;26.50;99.90
10964;DHT22;5534;48.784;9.190;2023-07-29T14:30:24;26.50;99.90
10964;DHT22;5534;48.784;9.190;2023-07-29T14:32:49;26.30;99.90
10964;DHT22;5534;48.784;9.190;2023-07-29T14:35:15;26.30;99.90
10964;DHT22;5534;48.784;9.190;2023-07-29T14:37:41;25.90;99.90
10964;DHT22;5534;48.784;9.190;2023-07-29T14:40:07;25.70;99.90
10964;DHT22;5534;48.784;9.190;2023-07-29T14:42:33;25.70;99.90
10964;DHT22;5534;48.784;9.190;2023-07-29T14:44:58;25.70;99.90
10964;DHT22;5534;48.784;9.190;2023-07-29T14:47:24;25.60;99.90
10964;DHT22;5534;48.784;9.190;2023-07-29T14:49:50;25.50;99.90
10964;DHT22;5534;48.784;9.190;2023-07-29T14:52:15;25.50;99.90
10964;DHT22;5534;48.784;9.190;2023-07-29T14:54:41;25.50;99.90
10964;DHT22;5534;48.784;9.190;2023-07-29T14:57:07;25.40;99.90
10964;DHT22;5534;48.784;9.190;2023-07-29T14:59:33;25.50;99.90
10964;DHT22;5534;48.784;9.190;2023-07-29T15:01:59;25.30;99.90
10964;DHT22;5534;48.784;9.190;2023-07-29T15:04:25;25.30;99.90
10964;DHT22;5534;48.784;9.190;2023-07-29T15:06:50;25.20;99.90
10964;DHT22;5534;48.784;9.190;2023-07-29T15:09:18;25.30;99.90
10964;DHT22;5534;48.784;9.190;2023-07-29T15:11:43;25.50;99.90
10964;DHT22;5534;48.784;9.190;2023-07-29T15:14:09;25.40;99.90
10964;DHT22;5534;48.784;9.190;2023-07-29T15:16:35;25.40;99.90
10964;DHT22;5534;48.784;9.190;2023-07-29T15:19:02;25.60;99.90
10964;DHT22;5534;48.784;9.190;2023-07-29T15:21:30;25.60;99.90
10964;DHT22;5534;48.784;9.190;2023-07-29T15:23:55;25.50;99.90
10964;DHT22;5534;48.784;9.190;2023-07-29T15:26:21;25.60;99.90
10964;DHT22;5534;48.784;9.190;2023-07-29T15:28:47;25.70;99.90
10964;DHT22;5534;48.784;9.190;2023-07-29T15:31:13;25.70;99.90
10964;DHT22;5534;48.784;9.190;2023-07-29T15:33:39;25.70;99.90
10964;DHT22;5534;48.784;9.190;2023-07-29T15:36:05;25.60;99.90
10964;DHT22;5534;48.784;9.190;2023-07-29T15:38:31;25.70;99.90
10964;DHT22;5534;48.784;9.190;2023-07-29T15:40:57;25.70;99.90
10964;DHT22;5534;48.784;9.190;2023-07-29T15:43:23;25.90;99.90
10964;DHT22;5534;48.784;9.190;2023-07-29T15:45:49;25.90;99.90
10964;DHT22;5534;48.784;9.190;2023-07-29T15:48:15;25.80;99.90
10964;DHT22;5534;48.784;9.190;2023-07-29T15:50:41;25.70;99.90
10964;DHT22;5534;48.784;9.190;2023-07-29T15:53:07;25.70;99.90
10964;DHT22;5534;48.784;9.190;2023-07-29T15:55:33;25.70;99.90
10964;DHT22;5534;48.784;9.190;2023-07-29T15:57:59;25.80;99.90
10964;DHT22;5534;48.784;9.190;2023-07-29T16:00:24;25.90;99.90